ヤクーツク の空港の天気 - METARとTAF

ヤクーツク空港 ( UEEE / YKS ) - ロシア ヤクーツク
飛行場実況気象(Metar)
観測時間05/29 07:00 YAKT (05/28 22:00 UTC)
風向・風速北東 3m/s
視程10km以上
天気現象
なし
気温12℃
湿度62%
気圧1007hPa
METARUEEE 282200Z 04003MPS CAVOK 12/05 Q1007 R05R/09//60 NOSIG RMK QFE746
過去の天気等 Google飛行場航空写真 Wunderground天気予報

過去48時間のMETAR

飛行場予報(TAF)
発表時間: 5/29 05:00 YAKT (5/28 20:00 UTC)
予報対象時間: 29日6時 YAKT ~ 30日12時 YAKT
風向・風速北東 5m/s 瞬間風速 10m/s
視程10km以上
全天の4割程度の積乱雲 雲底高度 610m
全天の8割程度の雲 雲底高度 2130m
29日6時 YAKT ~ 29日12時 YAKT に一時的に
視程3200m
天気現象弱いしゅう雨
全天の4割程度の雲 雲底高度 340m
全天の8割程度の積乱雲 雲底高度 610m
全天を覆う雲 雲底高度 2130m
TAF UEEE 282000Z 2821/3003 04005G10MPS 9999 SCT020CB BKN070
TEMPO 2821/2903 3200 -SHRA SCT011 BKN020CB OVC070